Time;durP1;ratioP1;P1;durP2;ratioP2;P2;SDS_P1;SDS_P2;PMS_P1;PMS_P2;Temp;Humidity;BMP_temperature;BMP_pressure;BME280_temperature;BME280_humidity;BME280_pressure;Samples;Min_cycle;Max_cycle;Signal;HPM_P1;HPM_P2
2022/11/14 00:01:37;;;;;;;46.47;24.58;;;8.80;99.90;;;;;;5106440;28;20032;-73
2022/11/14 00:04:03;;;;;;;44.20;24.10;;;8.70;99.90;;;;;;5106876;28;20035;-73
2022/11/14 00:06:29;;;;;;;47.67;25.05;;;8.70;99.90;;;;;;5089266;28;20026;-74
2022/11/14 00:08:54;;;;;;;41.88;25.08;;;8.60;99.90;;;;;;5092880;28;20479;-73
2022/11/14 00:11:20;;;;;;;41.58;25.30;;;8.60;99.90;;;;;;5102616;28;20020;-74
2022/11/14 00:13:46;;;;;;;41.08;23.92;;;8.60;99.90;;;;;;5109329;28;20028;-73
2022/11/14 00:16:12;;;;;;;41.70;23.65;;;8.60;99.90;;;;;;5090357;28;20535;-73
2022/11/14 00:18:37;;;;;;;41.58;23.00;;;8.60;99.90;;;;;;5110485;28;20123;-73
2022/11/14 00:21:03;;;;;;;44.10;24.42;;;8.60;99.90;;;;;;5103686;28;20027;-74
2022/11/14 00:23:29;;;;;;;43.88;24.77;;;8.50;99.90;;;;;;5103880;28;20103;-73
2022/11/14 00:25:55;;;;;;;39.45;23.15;;;8.50;99.90;;;;;;5106058;28;20419;-73
2022/11/14 00:28:20;;;;;;;46.83;24.77;;;8.40;99.90;;;;;;5105153;27;20027;-73
2022/11/14 00:30:49;;;;;;;46.08;25.67;;;8.40;99.90;;;;;;5104814;28;20077;-73
2022/11/14 00:33:17;;;;;;;41.40;24.25;;;8.40;99.90;;;;;;5087888;28;20028;-73
2022/11/14 00:35:50;;;;;;;43.95;24.08;;;8.40;99.90;;;;;;5104017;27;20108;-73
2022/11/14 00:38:16;;;;;;;47.03;25.08;;;8.50;99.90;;;;;;5106696;28;20063;-74
2022/11/14 00:40:41;;;;;;;38.50;22.27;;;8.40;99.90;;;;;;5103568;28;20487;-73
2022/11/14 00:43:07;;;;;;;46.90;25.92;;;8.40;99.90;;;;;;5108023;28;20043;-74
2022/11/14 00:45:33;;;;;;;44.10;24.77;;;8.40;99.90;;;;;;5089174;28;20509;-74
2022/11/14 00:47:58;;;;;;;47.53;24.38;;;8.30;99.90;;;;;;5106112;28;20028;-73
2022/11/14 00:50:24;;;;;;;42.45;24.40;;;8.30;99.90;;;;;;5089251;28;20600;-73
2022/11/14 00:52:50;;;;;;;43.70;24.15;;;8.40;99.90;;;;;;5108191;28;20060;-73
2022/11/14 00:55:15;;;;;;;44.47;24.80;;;8.30;99.90;;;;;;5087934;28;20399;-74
2022/11/14 00:57:41;;;;;;;42.35;23.95;;;8.30;99.90;;;;;;5103762;28;20054;-73
2022/11/14 01:00:07;;;;;;;46.38;25.77;;;8.30;99.90;;;;;;5081426;28;20038;-73
2022/11/14 01:02:33;;;;;;;43.42;23.05;;;8.40;99.90;;;;;;5103724;28;20028;-73
2022/11/14 01:04:59;;;;;;;44.80;24.02;;;8.40;99.90;;;;;;5107968;28;20032;-73
2022/11/14 01:07:25;;;;;;;44.80;24.75;;;8.40;99.90;;;;;;5087666;28;20076;-73
2022/11/14 01:09:50;;;;;;;44.55;24.13;;;8.40;99.90;;;;;;5104774;28;20523;-73
2022/11/14 01:12:16;;;;;;;48.58;26.05;;;8.30;99.90;;;;;;5115561;28;20035;-74
2022/11/14 01:14:42;;;;;;;45.10;24.30;;;8.30;99.90;;;;;;5092639;28;20028;-73
2022/11/14 01:17:07;;;;;;;51.17;25.95;;;8.30;99.90;;;;;;5088530;28;20407;-74
2022/11/14 01:19:33;;;;;;;48.17;25.77;;;8.30;99.90;;;;;;5074552;28;20058;-73
2022/11/14 01:21:59;;;;;;;49.83;25.70;;;8.30;99.90;;;;;;5103472;28;20059;-73
2022/11/14 01:24:25;;;;;;;47.45;25.15;;;8.30;99.90;;;;;;5102402;28;20062;-74
2022/11/14 01:26:54;;;;;;;51.90;27.35;;;8.20;99.90;;;;;;5089904;28;20053;-73
2022/11/14 01:29:21;;;;;;;45.33;25.42;;;8.20;99.90;;;;;;5101720;28;20050;-74
2022/11/14 01:31:47;;;;;;;46.75;24.95;;;8.20;99.90;;;;;;5100233;28;20593;-73
2022/11/14 01:34:12;;;;;;;48.33;24.27;;;8.20;99.90;;;;;;5106031;27;20034;-74
2022/11/14 01:36:38;;;;;;;45.90;24.92;;;8.30;99.90;;;;;;5106100;27;20091;-73
2022/11/14 01:39:04;;;;;;;49.67;26.58;;;8.30;99.90;;;;;;5104478;28;20035;-74
2022/11/14 01:41:29;;;;;;;50.75;27.10;;;8.20;99.90;;;;;;5084074;28;20028;-74
2022/11/14 01:43:55;;;;;;;47.70;26.33;;;8.20;99.90;;;;;;5106060;28;20027;-73
2022/11/14 01:46:35;;;;;;;45.55;25.83;;;8.30;99.90;;;;;;5085184;28;20039;-73
2022/11/14 01:49:11;;;;;;;48.40;26.75;;;8.30;99.90;;;;;;5106746;28;20430;-74
2022/11/14 01:51:42;;;;;;;47.92;25.67;;;8.20;99.90;;;;;;5107048;28;20487;-73
2022/11/14 01:54:15;;;;;;;49.65;26.45;;;8.20;99.90;;;;;;5088154;28;20037;-73
2022/11/14 01:56:48;;;;;;;50.53;26.70;;;8.20;99.90;;;;;;5109699;28;20031;-73
2022/11/14 01:59:19;;;;;;;50.67;27.77;;;8.20;99.90;;;;;;5089200;28;20051;-74
2022/11/14 02:01:48;;;;;;;47.53;25.05;;;8.10;99.90;;;;;;5104997;28;20038;-73
2022/11/14 02:04:28;;;;;;;51.47;26.92;;;8.10;99.90;;;;;;5093950;28;20415;-74
2022/11/14 02:06:58;;;;;;;53.28;27.10;;;8.10;99.90;;;;;;5089030;28;20051;-73
2022/11/14 02:09:26;;;;;;;50.78;26.52;;;8.10;99.90;;;;;;5087409;28;20026;-73
2022/11/14 02:11:55;;;;;;;52.25;26.13;;;8.10;99.90;;;;;;5084535;28;20027;-73
2022/11/14 02:14:21;;;;;;;49.17;27.17;;;8.20;99.90;;;;;;5107010;28;20097;-72
2022/11/14 02:16:48;;;;;;;59.05;27.83;;;8.20;99.90;;;;;;5105708;28;20024;-73
2022/11/14 02:19:14;;;;;;;53.25;27.67;;;8.10;99.90;;;;;;5104692;28;20022;-73
2022/11/14 02:21:40;;;;;;;51.60;26.15;;;8.20;99.90;;;;;;5086880;28;20580;-72
2022/11/14 02:24:10;;;;;;;53.17;28.08;;;8.10;99.90;;;;;;5107049;28;20028;-73
2022/11/14 02:26:36;;;;;;;50.65;26.88;;;8.10;99.90;;;;;;5106592;28;20028;-73
2022/11/14 02:29:04;;;;;;;50.40;26.33;;;8.10;99.90;;;;;;5108856;28;20027;-73
2022/11/14 02:31:30;;;;;;;58.13;29.67;;;8.10;99.90;;;;;;5081392;28;20421;-73
2022/11/14 02:33:55;;;;;;;51.58;27.15;;;8.10;99.90;;;;;;5104501;28;20031;-73
2022/11/14 02:36:21;;;;;;;51.95;27.17;;;8.10;99.90;;;;;;5103091;28;20558;-73
2022/11/14 02:38:47;;;;;;;50.05;27.05;;;8.10;99.90;;;;;;5103112;28;20059;-74
2022/11/14 02:41:12;;;;;;;51.72;26.55;;;8.10;99.90;;;;;;5085910;28;20517;-73
2022/11/14 02:43:38;;;;;;;51.67;26.52;;;8.10;99.90;;;;;;5070189;28;20030;-73
2022/11/14 02:46:04;;;;;;;48.78;26.77;;;8.10;99.90;;;;;;5102273;28;20083;-73
2022/11/14 02:48:30;;;;;;;49.63;27.15;;;8.10;99.90;;;;;;5088361;28;20399;-72
2022/11/14 02:50:55;;;;;;;52.25;27.63;;;8.10;99.90;;;;;;5089872;28;20057;-73
2022/11/14 02:53:21;;;;;;;53.28;27.58;;;8.10;99.90;;;;;;5084563;28;20451;-73
2022/11/14 02:55:47;;;;;;;50.90;28.38;;;8.10;99.90;;;;;;5085389;28;20039;-73
2022/11/14 02:58:13;;;;;;;56.05;28.33;;;8.10;99.90;;;;;;5107360;28;20040;-73
2022/11/14 03:00:38;;;;;;;50.83;26.38;;;8.00;99.90;;;;;;5088264;28;20034;-72
2022/11/14 03:03:04;;;;;;;50.38;26.98;;;8.10;99.90;;;;;;5107174;28;20508;-73
2022/11/14 03:05:30;;;;;;;54.63;28.08;;;8.10;99.90;;;;;;5100636;28;20035;-73
2022/11/14 03:07:56;;;;;;;48.58;26.27;;;8.10;99.90;;;;;;5107363;28;20446;-73
2022/11/14 03:10:22;;;;;;;52.65;27.48;;;8.10;99.90;;;;;;5103968;28;20032;-73
2022/11/14 03:12:53;;;;;;;52.67;28.73;;;8.10;99.90;;;;;;5088503;28;20081;-72
2022/11/14 03:15:19;;;;;;;52.70;27.83;;;8.10;99.90;;;;;;5087140;28;20558;-73
2022/11/14 03:17:45;;;;;;;57.78;27.95;;;8.00;99.90;;;;;;5110200;28;20110;-73
2022/11/14 03:20:10;;;;;;;52.70;27.95;;;8.00;99.90;;;;;;5109686;28;20031;-73
2022/11/14 03:22:36;;;;;;;57.72;28.45;;;8.00;99.90;;;;;;5098652;28;20395;-74
2022/11/14 03:25:02;;;;;;;48.80;26.77;;;8.10;99.90;;;;;;5107912;28;20027;-73
2022/11/14 03:27:28;;;;;;;52.65;26.95;;;8.10;99.90;;;;;;5110218;28;20019;-73
2022/11/14 03:29:53;;;;;;;49.92;26.67;;;8.00;99.90;;;;;;5107428;28;20720;-73
2022/11/14 03:32:19;;;;;;;54.10;29.17;;;8.10;99.90;;;;;;5089285;28;20441;-73
2022/11/14 03:34:45;;;;;;;53.30;27.83;;;8.00;99.90;;;;;;5091202;28;20027;-73
2022/11/14 03:37:10;;;;;;;52.83;27.42;;;8.00;99.90;;;;;;5108740;28;20020;-73
2022/11/14 03:39:36;;;;;;;51.75;26.95;;;8.00;99.90;;;;;;5106378;28;20032;-74
2022/11/14 03:42:02;;;;;;;57.42;29.30;;;8.00;99.90;;;;;;5085707;28;20092;-73
2022/11/14 03:44:28;;;;;;;54.67;29.88;;;8.00;99.90;;;;;;5092332;28;20039;-72
2022/11/14 03:46:54;;;;;;;56.90;29.15;;;8.00;99.90;;;;;;5107367;28;20114;-74
2022/11/14 03:49:19;;;;;;;50.25;28.08;;;8.00;99.90;;;;;;5108042;28;20028;-74
2022/11/14 03:51:45;;;;;;;59.10;29.40;;;8.00;99.90;;;;;;5092135;28;20051;-73
2022/11/14 03:54:11;;;;;;;55.03;28.88;;;8.00;99.90;;;;;;5091182;28;20044;-73
2022/11/14 03:56:36;;;;;;;56.90;29.25;;;8.00;99.90;;;;;;5111081;28;20059;-73
2022/11/14 03:59:02;;;;;;;52.63;28.98;;;8.00;99.90;;;;;;5109570;28;20567;-73
2022/11/14 04:01:28;;;;;;;56.38;29.67;;;8.00;99.90;;;;;;5109467;28;20027;-73
2022/11/14 04:03:55;;;;;;;56.42;29.27;;;8.00;99.90;;;;;;5106568;28;20040;-73
2022/11/14 04:06:20;;;;;;;54.00;28.40;;;8.00;99.90;;;;;;5090545;28;20027;-73
2022/11/14 04:08:46;;;;;;;54.17;28.60;;;8.00;99.90;;;;;;5107996;28;20411;-73
2022/11/14 04:11:12;;;;;;;60.15;30.25;;;8.00;99.90;;;;;;5107059;28;20016;-73
2022/11/14 04:13:37;;;;;;;57.28;28.77;;;8.00;99.90;;;;;;5092366;28;20024;-73
2022/11/14 04:16:03;;;;;;;58.03;28.70;;;8.00;99.90;;;;;;5092631;28;20505;-73
2022/11/14 04:18:29;;;;;;;57.92;30.30;;;8.00;99.90;;;;;;5106749;28;20039;-73
2022/11/14 04:20:55;;;;;;;55.13;29.42;;;8.00;99.90;;;;;;5090797;28;20804;-73
2022/11/14 04:23:21;;;;;;;50.80;28.38;;;8.00;99.90;;;;;;5104556;28;20495;-73
2022/11/14 04:25:47;;;;;;;53.00;27.75;;;8.00;99.90;;;;;;5074780;28;20020;-73
2022/11/14 04:28:13;;;;;;;53.58;29.58;;;8.00;99.90;;;;;;5107179;28;20034;-72
2022/11/14 04:30:39;;;;;;;57.50;29.30;;;8.00;99.90;;;;;;5091826;28;20108;-72
2022/11/14 04:33:05;;;;;;;52.92;26.77;;;8.00;99.90;;;;;;5109856;28;20138;-74
2022/11/14 04:35:31;;;;;;;54.55;27.52;;;8.00;99.90;;;;;;5088323;28;20023;-74
2022/11/14 04:37:56;;;;;;;54.80;28.45;;;8.00;99.90;;;;;;5089337;28;20106;-73
2022/11/14 04:40:22;;;;;;;49.45;27.85;;;7.90;99.90;;;;;;5102695;28;20031;-72
2022/11/14 04:42:48;;;;;;;53.83;28.95;;;7.90;99.90;;;;;;5105774;28;20047;-73
2022/11/14 04:45:14;;;;;;;54.85;28.90;;;7.90;99.90;;;;;;5103516;28;20028;-73
2022/11/14 04:47:43;;;;;;;54.70;27.92;;;7.90;99.90;;;;;;5105073;28;20020;-73
2022/11/14 04:50:09;;;;;;;54.13;27.98;;;7.90;99.90;;;;;;5105114;28;20024;-73
2022/11/14 04:52:35;;;;;;;54.38;27.83;;;7.90;99.90;;;;;;5106026;28;20024;-72
2022/11/14 04:55:01;;;;;;;53.72;27.63;;;7.90;99.90;;;;;;5104731;28;20620;-73
2022/11/14 04:57:26;;;;;;;54.58;29.33;;;7.90;99.90;;;;;;5104852;28;20109;-73
2022/11/14 04:59:52;;;;;;;51.92;28.48;;;7.90;99.90;;;;;;5091772;28;20648;-72
2022/11/14 05:02:18;;;;;;;55.47;28.58;;;7.90;99.90;;;;;;5090939;28;20448;-73
2022/11/14 05:04:46;;;;;;;56.45;27.17;;;7.90;99.90;;;;;;5089135;28;20051;-72
2022/11/14 05:07:12;;;;;;;49.45;26.23;;;7.90;99.90;;;;;;5108042;28;20684;-72
2022/11/14 05:09:39;;;;;;;49.83;26.58;;;7.90;99.90;;;;;;5105302;28;20069;-73
2022/11/14 05:12:05;;;;;;;59.88;28.25;;;7.90;99.90;;;;;;5108940;28;20038;-72
2022/11/14 05:14:31;;;;;;;54.85;28.45;;;7.90;99.90;;;;;;5107472;28;20031;-72
2022/11/14 05:16:58;;;;;;;55.70;26.85;;;7.90;99.90;;;;;;5089002;28;20679;-72
2022/11/14 05:19:24;;;;;;;50.55;27.20;;;7.90;99.90;;;;;;5089578;28;20028;-73
2022/11/14 05:21:50;;;;;;;51.80;27.73;;;7.90;99.90;;;;;;5087480;28;20031;-72
2022/11/14 05:24:18;;;;;;;54.22;28.75;;;7.90;99.90;;;;;;5091287;28;20518;-72
2022/11/14 05:26:43;;;;;;;55.97;29.40;;;7.90;99.90;;;;;;5109788;28;20069;-72
2022/11/14 05:29:09;;;;;;;55.35;28.63;;;7.90;99.90;;;;;;5093635;28;20055;-72
2022/11/14 05:31:35;;;;;;;57.78;30.80;;;7.90;99.90;;;;;;5115191;28;20023;-73
2022/11/14 05:34:00;;;;;;;57.53;28.90;;;7.90;99.90;;;;;;5093859;28;20024;-73
2022/11/14 05:36:26;;;;;;;59.80;28.65;;;7.90;99.90;;;;;;5087750;28;20084;-72
2022/11/14 05:38:53;;;;;;;58.65;29.98;;;7.90;99.90;;;;;;5085922;28;20432;-73
2022/11/14 05:41:19;;;;;;;60.55;29.35;;;7.90;99.90;;;;;;5088945;28;20665;-73
2022/11/14 05:43:45;;;;;;;57.25;28.27;;;7.80;99.90;;;;;;5088385;28;20027;-73
2022/11/14 05:46:13;;;;;;;56.03;29.73;;;7.80;99.90;;;;;;5085701;28;20028;-73
2022/11/14 05:48:39;;;;;;;53.15;28.13;;;7.90;99.90;;;;;;5068099;28;20117;-73
2022/11/14 05:51:07;;;;;;;58.33;28.85;;;7.80;99.90;;;;;;5082932;28;20032;-73
2022/11/14 05:53:33;;;;;;;53.55;28.73;;;7.90;99.90;;;;;;5087062;28;20031;-73
2022/11/14 05:56:04;;;;;;;50.85;27.58;;;7.80;99.90;;;;;;5084647;28;20035;-73
2022/11/14 05:58:31;;;;;;;53.70;28.55;;;7.90;99.90;;;;;;5105364;28;20111;-72
2022/11/14 06:01:17;;;;;;;55.45;29.05;;;7.80;99.90;;;;;;5083231;28;20032;-72
2022/11/14 06:03:46;;;;;;;52.53;27.40;;;7.80;99.90;;;;;;5092328;28;20027;-72
2022/11/14 06:06:14;;;;;;;54.72;28.27;;;7.80;99.90;;;;;;5073469;28;20035;-73
2022/11/14 06:08:41;;;;;;;53.65;27.88;;;7.80;99.90;;;;;;5087585;28;20024;-73
2022/11/14 06:11:16;;;;;;;57.28;28.25;;;7.90;99.90;;;;;;5089719;28;20027;-73
2022/11/14 06:13:42;;;;;;;52.15;27.38;;;7.90;99.90;;;;;;5083933;28;20388;-73
2022/11/14 06:16:16;;;;;;;54.17;27.77;;;7.90;99.90;;;;;;5088359;28;20031;-72
2022/11/14 06:18:42;;;;;;;54.45;28.23;;;7.90;99.90;;;;;;5105071;28;20051;-73
2022/11/14 06:21:19;;;;;;;56.22;30.33;;;7.90;99.90;;;;;;5106933;28;20483;-73
2022/11/14 06:23:46;;;;;;;54.65;27.17;;;7.80;99.90;;;;;;5083425;28;20515;-72
2022/11/14 06:26:23;;;;;;;55.85;28.77;;;7.80;99.90;;;;;;5101202;28;20667;-73
2022/11/14 06:28:50;;;;;;;53.92;28.10;;;7.80;99.90;;;;;;5100229;28;20039;-74
2022/11/14 06:31:17;;;;;;;56.25;28.95;;;7.80;99.90;;;;;;5082117;28;20026;-72
2022/11/14 06:33:43;;;;;;;51.75;26.27;;;7.80;99.90;;;;;;5087187;28;20032;-72
2022/11/14 06:36:10;;;;;;;54.03;29.00;;;7.80;99.90;;;;;;5089188;28;20038;-73
2022/11/14 06:38:37;;;;;;;52.72;27.50;;;7.80;99.90;;;;;;5086952;28;20044;-74
2022/11/14 06:41:11;;;;;;;62.50;31.17;;;7.80;99.90;;;;;;5085594;28;20189;-72
2022/11/14 06:43:39;;;;;;;37.63;20.00;;;7.80;99.90;;;;;;5094484;28;20055;-73
2022/11/14 06:46:06;;;;;;;54.45;29.02;;;9.50;99.90;;;;;;5052746;28;20027;-73
2022/11/14 06:48:33;;;;;;;59.78;28.30;;;8.80;99.90;;;;;;5093512;28;20073;-72
2022/11/14 06:51:00;;;;;;;59.17;31.15;;;8.40;99.90;;;;;;5073220;28;20064;-74
2022/11/14 06:53:31;;;;;;;56.10;27.10;;;8.30;99.90;;;;;;5079202;28;20055;-72
2022/11/14 06:56:02;;;;;;;;;;;8.20;99.90;;;;;;5081252;28;20039;-74
2022/11/14 06:58:29;;;;;;;56.08;27.77;;;8.10;99.90;;;;;;5085516;28;19912;-78
2022/11/14 07:00:56;;;;;;;58.67;28.52;;;8.00;99.90;;;;;;5064620;28;20027;-74
2022/11/14 07:03:22;;;;;;;59.17;28.13;;;7.90;99.90;;;;;;5039701;28;1240477;-73
2022/11/14 07:05:49;;;;;;;63.95;30.38;;;7.90;99.90;;;;;;5102511;28;20511;-73
2022/11/14 07:08:15;;;;;;;57.33;30.27;;;7.80;99.90;;;;;;5102607;28;20032;-73
2022/11/14 07:10:41;;;;;;;61.20;30.73;;;7.90;99.90;;;;;;5081318;28;20020;-75
2022/11/14 07:13:08;;;;;;;64.07;31.00;;;7.80;99.90;;;;;;5102289;28;20028;-73
2022/11/14 07:15:34;;;;;;;66.15;30.33;;;7.80;99.90;;;;;;5098718;28;20027;-74
2022/11/14 07:17:59;;;;;;;65.05;32.03;;;7.80;99.90;;;;;;5084260;28;20024;-73
2022/11/14 07:20:25;;;;;;;62.28;31.52;;;7.80;99.90;;;;;;5082256;28;20032;-73
2022/11/14 07:22:51;;;;;;;63.85;31.00;;;7.70;99.90;;;;;;5097677;28;20028;-73
2022/11/14 07:25:17;;;;;;;69.22;31.95;;;7.70;99.90;;;;;;5102827;28;20024;-75
2022/11/14 07:27:42;;;;;;;67.13;31.02;;;7.70;99.90;;;;;;5086034;28;20024;-75
2022/11/14 07:30:09;;;;;;;62.78;32.78;;;7.70;99.90;;;;;;5099079;28;20694;-75
2022/11/14 07:32:34;;;;;;;57.20;29.88;;;7.80;99.90;;;;;;5087383;28;20109;-75
2022/11/14 07:35:00;;;;;;;63.80;31.65;;;7.80;99.90;;;;;;5081143;28;20070;-76
2022/11/14 07:37:26;;;;;;;61.20;30.13;;;7.80;99.90;;;;;;5086312;28;20491;-73
2022/11/14 07:39:52;;;;;;;61.03;32.20;;;7.70;99.90;;;;;;5096327;28;20269;-74
2022/11/14 07:42:18;;;;;;;61.70;31.10;;;7.70;99.90;;;;;;5091282;28;20456;-77
2022/11/14 07:44:44;;;;;;;60.95;30.88;;;7.70;99.90;;;;;;5104347;28;20027;-74
2022/11/14 07:47:09;;;;;;;62.35;30.50;;;7.70;99.90;;;;;;5078059;28;20036;-76
2022/11/14 07:49:35;;;;;;;68.78;32.67;;;7.70;99.90;;;;;;5103040;28;20023;-75
2022/11/14 07:52:01;;;;;;;60.13;30.35;;;7.80;99.90;;;;;;5102348;28;20430;-74
2022/11/14 07:54:27;;;;;;;59.38;31.63;;;7.80;99.90;;;;;;5103336;28;20068;-74
2022/11/14 07:56:52;;;;;;;65.28;31.45;;;7.70;99.90;;;;;;5069987;28;20505;-74
2022/11/14 07:59:18;;;;;;;63.40;30.33;;;7.80;99.90;;;;;;5087125;28;20036;-75
2022/11/14 08:01:47;;;;;;;63.22;29.90;;;7.70;99.90;;;;;;5083985;28;20067;-75
2022/11/14 08:04:13;;;;;;;57.05;29.63;;;7.70;99.90;;;;;;5067503;28;20169;-73
2022/11/14 08:06:38;;;;;;;56.97;28.70;;;7.70;99.90;;;;;;5090419;28;20678;-74
2022/11/14 08:09:04;;;;;;;59.42;29.88;;;7.70;99.90;;;;;;5101134;27;20034;-75
2022/11/14 08:11:48;;;;;;;62.40;32.35;;;7.70;99.90;;;;;;5087630;28;20039;-73
2022/11/14 08:14:15;;;;;;;61.00;30.02;;;7.70;99.90;;;;;;5106770;28;20028;-73
2022/11/14 08:16:41;;;;;;;65.30;31.45;;;7.70;99.90;;;;;;5070014;28;20047;-73
2022/11/14 08:19:12;;;;;;;67.55;30.92;;;7.70;99.90;;;;;;5104414;28;20129;-73
2022/11/14 08:21:38;;;;;;;72.80;31.48;;;7.70;99.90;;;;;;5099816;28;20031;-74
2022/11/14 08:24:04;;;;;;;65.75;30.02;;;7.70;99.90;;;;;;5068236;28;20046;-74
2022/11/14 08:26:30;;;;;;;63.80;29.98;;;7.70;99.90;;;;;;5108707;28;20410;-73
2022/11/14 08:28:55;;;;;;;64.35;31.17;;;7.70;99.90;;;;;;5091036;28;20032;-74
2022/11/14 08:31:21;;;;;;;60.83;29.92;;;7.70;99.90;;;;;;5106922;28;20495;-76
2022/11/14 08:33:50;;;;;;;67.55;31.05;;;7.70;99.90;;;;;;5089989;28;20046;-73
2022/11/14 08:36:16;;;;;;;57.85;27.98;;;7.70;99.90;;;;;;5109249;28;20036;-73
2022/11/14 08:38:42;;;;;;;53.47;27.42;;;7.70;99.90;;;;;;5088700;28;20410;-73
2022/11/14 08:41:08;;;;;;;64.05;29.80;;;7.80;99.90;;;;;;5087975;28;20052;-73
2022/11/14 08:43:37;;;;;;;57.42;29.27;;;7.80;99.90;;;;;;5108186;28;20037;-74
2022/11/14 08:46:03;;;;;;;60.72;29.38;;;7.80;99.90;;;;;;5089390;28;20030;-73
2022/11/14 08:48:30;;;;;;;59.65;29.02;;;7.80;99.90;;;;;;5109948;27;20038;-74
2022/11/14 08:50:56;;;;;;;58.65;29.58;;;7.80;99.90;;;;;;5089738;28;20406;-74
2022/11/14 08:53:22;;;;;;;58.97;29.15;;;7.80;99.90;;;;;;5091379;28;20028;-73
2022/11/14 08:55:48;;;;;;;61.60;29.70;;;7.80;99.90;;;;;;5110782;28;20031;-73
2022/11/14 08:58:15;;;;;;;66.80;30.88;;;7.80;99.90;;;;;;5110953;28;20031;-74
2022/11/14 09:00:40;;;;;;;65.85;31.48;;;7.80;99.90;;;;;;5090039;28;20019;-74
2022/11/14 09:03:14;;;;;;;60.58;30.15;;;7.80;99.90;;;;;;5110751;28;20387;-74
2022/11/14 09:05:41;;;;;;;68.70;29.80;;;7.80;99.90;;;;;;5111480;28;20511;-74
2022/11/14 09:08:07;;;;;;;62.00;30.00;;;7.80;99.90;;;;;;5093232;28;20027;-74
2022/11/14 09:10:33;;;;;;;65.50;30.10;;;7.80;99.90;;;;;;5092696;28;20030;-74
2022/11/14 09:13:01;;;;;;;65.30;30.25;;;7.80;99.90;;;;;;5089766;28;20028;-74
2022/11/14 09:15:29;;;;;;;61.35;30.58;;;7.80;99.90;;;;;;5107965;28;20073;-74
2022/11/14 09:17:56;;;;;;;60.97;29.48;;;7.80;99.90;;;;;;5092262;28;20080;-74
2022/11/14 09:20:23;;;;;;;63.75;28.80;;;7.80;99.90;;;;;;5092623;28;20031;-74
2022/11/14 09:22:52;;;;;;;60.85;29.67;;;7.80;99.90;;;;;;5092239;28;20122;-74
2022/11/14 09:25:20;;;;;;;66.03;30.05;;;7.80;99.90;;;;;;5110911;28;20035;-74
2022/11/14 09:27:46;;;;;;;64.57;29.08;;;7.80;99.90;;;;;;5092044;28;20160;-76
2022/11/14 09:30:13;;;;;;;59.00;29.30;;;7.80;99.90;;;;;;5109865;28;20096;-74
2022/11/14 09:32:39;;;;;;;61.15;30.05;;;7.70;99.90;;;;;;5109592;28;20084;-73
2022/11/14 09:35:04;;;;;;;61.80;28.80;;;7.70;99.90;;;;;;5103543;28;20110;-74
2022/11/14 09:37:31;;;;;;;58.38;29.45;;;7.70;99.90;;;;;;5091146;28;20035;-73
2022/11/14 09:39:57;;;;;;;62.60;30.65;;;7.80;99.90;;;;;;5107046;28;20027;-75
2022/11/14 09:43:05;;;;;;;65.80;31.05;;;7.80;99.90;;;;;;5086744;28;20032;-75
2022/11/14 09:45:33;;;;;;;57.72;26.17;;;7.80;99.90;;;;;;5110107;28;20411;-74
2022/11/14 09:48:21;;;;;;;62.88;29.58;;;7.80;99.90;;;;;;5088676;28;20019;-74
2022/11/14 09:51:31;;;;;;;61.03;29.70;;;7.80;99.90;;;;;;5091069;28;20085;-75
2022/11/14 09:54:26;;;;;;;57.15;28.70;;;7.80;99.90;;;;;;5072898;28;20039;-76
2022/11/14 09:56:52;;;;;;;59.70;28.83;;;7.90;99.90;;;;;;5107934;28;20028;-75
2022/11/14 09:59:18;;;;;;;60.50;29.30;;;7.90;99.90;;;;;;5097094;28;20391;-73
2022/11/14 10:01:56;;;;;;;62.90;28.90;;;7.90;99.90;;;;;;5109053;28;20020;-75
2022/11/14 10:04:47;;;;;;;60.03;29.08;;;7.90;99.90;;;;;;5108628;28;20024;-75
2022/11/14 10:07:28;;;;;;;57.28;28.70;;;8.00;99.90;;;;;;5090789;28;20027;-75
2022/11/14 10:10:06;;;;;;;59.77;29.17;;;8.00;99.90;;;;;;5088066;28;20019;-75
2022/11/14 10:12:42;;;;;;;56.67;28.50;;;8.00;99.90;;;;;;5090769;28;20100;-74
2022/11/14 10:15:15;;;;;;;56.50;28.02;;;7.90;99.90;;;;;;5108517;28;20438;-75
2022/11/14 10:18:03;;;;;;;56.35;28.38;;;8.00;99.90;;;;;;5106807;28;20445;-74
2022/11/14 10:20:56;;;;;;;59.85;29.27;;;8.00;99.90;;;;;;5089236;28;20460;-75
2022/11/14 10:23:44;;;;;;;58.28;29.52;;;8.00;99.90;;;;;;5106844;28;20024;-74
2022/11/14 10:26:30;;;;;;;55.03;27.92;;;8.10;99.90;;;;;;5107718;28;20403;-74
2022/11/14 10:28:56;;;;;;;59.22;27.95;;;8.30;99.90;;;;;;5104853;28;20083;-74
2022/11/14 10:31:25;;;;;;;54.80;28.88;;;8.30;99.90;;;;;;5091950;28;20024;-74
2022/11/14 10:34:09;;;;;;;57.38;28.20;;;8.20;99.90;;;;;;5106730;28;20107;-74
2022/11/14 10:36:56;;;;;;;55.72;29.02;;;8.20;99.90;;;;;;5108854;28;20028;-74
2022/11/14 10:39:48;;;;;;;59.10;29.40;;;8.20;99.90;;;;;;5105741;28;20035;-74
2022/11/14 10:42:37;;;;;;;81.72;38.00;;;8.20;99.90;;;;;;5108310;28;20284;-73
2022/11/14 10:45:24;;;;;;;57.65;28.80;;;8.20;99.90;;;;;;5107654;28;20027;-74
2022/11/14 10:48:00;;;;;;;58.85;28.38;;;8.20;99.90;;;;;;5091540;28;20107;-74
2022/11/14 10:51:01;;;;;;;51.78;27.42;;;8.20;99.90;;;;;;5091257;28;20026;-75
2022/11/14 10:53:40;;;;;;;61.88;31.08;;;8.20;99.90;;;;;;5094813;28;20040;-75
2022/11/14 10:56:13;;;;;;;53.83;27.65;;;8.30;99.90;;;;;;5089924;28;20028;-75
2022/11/14 10:58:40;;;;;;;54.38;27.58;;;8.20;99.90;;;;;;5108884;28;20031;-74
2022/11/14 11:01:37;;;;;;;53.92;27.77;;;8.30;99.90;;;;;;5086092;28;20036;-74
2022/11/14 11:04:35;;;;;;;54.45;26.83;;;8.20;99.90;;;;;;5090053;28;20085;-75
2022/11/14 11:07:07;;;;;;;49.47;26.00;;;8.30;99.90;;;;;;5083415;28;20525;-74
2022/11/14 11:12:41;;;;;;;50.63;27.00;;;8.30;99.90;;;;;;5107888;28;20095;-75
2022/11/14 11:15:20;;;;;;;50.50;26.15;;;8.30;99.90;;;;;;5107083;28;20066;-73
2022/11/14 11:17:53;;;;;;;50.90;27.10;;;8.40;99.90;;;;;;5090439;28;20395;-75
2022/11/14 11:20:27;;;;;;;49.47;26.23;;;8.40;99.90;;;;;;5106306;28;20533;-74
2022/11/14 11:23:26;;;;;;;47.45;25.92;;;8.50;99.90;;;;;;5105488;28;20036;-79
2022/11/14 11:26:06;;;;;;;48.35;24.88;;;8.60;99.90;;;;;;5005578;28;20049;-74
2022/11/14 11:28:36;;;;;;;48.25;25.88;;;8.70;99.90;;;;;;5019695;28;20041;-74
2022/11/14 11:31:09;;;;;;;44.50;25.50;;;8.80;99.90;;;;;;5033767;28;20056;-73
2022/11/14 11:33:37;;;;;;;46.60;26.17;;;8.80;99.90;;;;;;5034993;28;20366;-72
2022/11/14 11:36:15;;;;;;;45.35;24.27;;;8.80;99.90;;;;;;5010087;28;20051;-75
2022/11/14 11:38:41;;;;;;;43.45;24.55;;;8.80;99.90;;;;;;5023530;28;20029;-74
2022/11/14 11:41:29;;;;;;;44.75;24.67;;;8.80;99.90;;;;;;5038953;28;20063;-75
2022/11/14 11:44:02;;;;;;;65.30;34.17;;;8.80;99.90;;;;;;5039269;28;20068;-74
2022/11/14 11:46:46;;;;;;;49.88;26.60;;;8.80;99.90;;;;;;5034321;28;20034;-76
2022/11/14 11:49:34;;;;;;;48.78;25.77;;;8.70;99.90;;;;;;5036493;28;20099;-75
2022/11/14 11:52:18;;;;;;;47.22;24.50;;;8.70;99.90;;;;;;5026018;28;20037;-74
2022/11/14 11:55:08;;;;;;;47.63;25.70;;;8.70;99.90;;;;;;5026499;28;20029;-73
2022/11/14 11:57:54;;;;;;;47.30;25.67;;;8.60;99.90;;;;;;5027851;28;20038;-73
2022/11/14 12:00:21;;;;;;;52.03;27.25;;;8.60;99.90;;;;;;5036782;28;20112;-75
2022/11/14 12:02:49;;;;;;;53.78;27.70;;;8.60;99.90;;;;;;5058994;28;20039;-75
2022/11/14 12:05:22;;;;;;;44.75;23.77;;;8.60;99.90;;;;;;5110398;28;20032;-74
2022/11/14 12:07:54;;;;;;;45.53;25.50;;;8.70;99.90;;;;;;5117973;28;20020;-75
2022/11/14 12:10:24;;;;;;;50.10;26.20;;;8.60;99.90;;;;;;5091091;28;20024;-74
2022/11/14 12:13:24;;;;;;;48.72;24.50;;;8.70;99.90;;;;;;5087928;28;20020;-75
2022/11/14 12:16:14;;;;;;;46.90;26.00;;;8.70;99.90;;;;;;5074972;28;20115;-74
2022/11/14 12:19:19;;;;;;;49.73;26.93;;;8.80;99.90;;;;;;5073612;28;20019;-74
2022/11/14 12:21:59;;;;;;;49.47;26.42;;;8.80;99.90;;;;;;5091549;28;20046;-74
2022/11/14 12:24:36;;;;;;;47.65;25.15;;;8.80;99.90;;;;;;5106054;28;20456;-75
2022/11/14 12:27:11;;;;;;;45.33;25.25;;;8.80;99.90;;;;;;5109204;27;20020;-75
2022/11/14 12:30:06;;;;;;;54.10;27.65;;;8.90;99.90;;;;;;5086111;28;20039;-74
2022/11/14 12:32:46;;;;;;;47.35;25.02;;;8.90;99.90;;;;;;5103837;28;20019;-73
2022/11/14 12:35:39;;;;;;;48.30;26.00;;;8.90;99.90;;;;;;5091738;28;20375;-74
2022/11/14 12:38:14;;;;;;;47.70;26.02;;;8.90;99.90;;;;;;5090593;28;20485;-74
2022/11/14 12:40:48;;;;;;;46.70;25.92;;;8.90;99.90;;;;;;5093342;28;20051;-74
2022/11/14 12:43:34;;;;;;;200.10;95.32;;;8.90;99.90;;;;;;5088511;28;20058;-74
2022/11/14 12:46:07;;;;;;;97.35;49.92;;;9.00;99.90;;;;;;5106695;28;20031;-75
2022/11/14 12:48:35;;;;;;;260.38;145.32;;;9.00;99.90;;;;;;5076463;28;20510;-74
2022/11/14 12:51:03;;;;;;;79.82;41.72;;;8.90;99.90;;;;;;5072832;28;20044;-74
2022/11/14 12:53:35;;;;;;;50.10;28.50;;;9.00;99.90;;;;;;5086586;28;20514;-75
2022/11/14 12:56:33;;;;;;;53.47;26.95;;;9.00;99.90;;;;;;5101442;28;20510;-74